createdAt,value
2022-11-05T00:00:32.450Z,6.10
2022-11-05T00:03:18.977Z,5.53
2022-11-05T00:06:08.490Z,5.75
2022-11-05T00:08:54.174Z,4.82
2022-11-05T00:11:41.511Z,7.55
2022-11-05T00:14:27.486Z,6.32
2022-11-05T00:16:54.755Z,5.05
2022-11-05T00:19:25.759Z,9.55
2022-11-05T00:22:13.722Z,7.22
2022-11-05T00:24:59.693Z,4.20
2022-11-05T00:27:27.025Z,4.13
2022-11-05T00:29:54.309Z,5.60
2022-11-05T00:32:23.463Z,5.63
2022-11-05T00:34:50.748Z,6.60
2022-11-05T00:37:18.294Z,6.13
2022-11-05T00:39:45.967Z,4.63
2022-11-05T00:42:31.489Z,7.25
2022-11-05T00:45:01.995Z,5.05
2022-11-05T00:47:52.119Z,4.68
2022-11-05T00:50:20.902Z,5.07
2022-11-05T00:52:56.275Z,4.07
2022-11-05T00:55:24.371Z,6.05
2022-11-05T00:57:52.114Z,5.78
2022-11-05T01:00:19.963Z,6.63
2022-11-05T01:02:47.482Z,4.88
2022-11-05T01:05:14.956Z,4.72
2022-11-05T01:07:42.307Z,4.60
2022-11-05T01:10:09.831Z,4.35
2022-11-05T01:12:37.141Z,4.22
2022-11-05T01:15:04.915Z,4.90
2022-11-05T01:17:32.169Z,6.35
2022-11-05T01:19:59.466Z,3.92
2022-11-05T01:22:26.722Z,5.05
2022-11-05T01:24:54.036Z,5.15
2022-11-05T01:27:22.264Z,5.35
2022-11-05T01:29:49.552Z,4.00
2022-11-05T01:32:16.771Z,5.90
2022-11-05T01:34:44.105Z,4.00
2022-11-05T01:37:11.430Z,6.50
2022-11-05T01:39:38.682Z,3.25
2022-11-05T01:42:14.863Z,4.97
2022-11-05T01:44:48.051Z,4.20
2022-11-05T01:47:41.416Z,3.95
2022-11-05T01:50:37.642Z,4.30
2022-11-05T01:53:12.183Z,5.50
2022-11-05T01:55:49.405Z,3.10
2022-11-05T01:58:20.434Z,3.53
2022-11-05T02:00:47.840Z,3.47
2022-11-05T02:03:17.918Z,3.60
2022-11-05T02:05:46.413Z,4.43
2022-11-05T02:08:22.619Z,4.45
2022-11-05T02:10:50.636Z,4.20
2022-11-05T02:13:17.932Z,4.30
2022-11-05T02:15:48.174Z,3.40
2022-11-05T02:18:38.636Z,3.97
2022-11-05T02:21:47.279Z,4.57
2022-11-05T02:24:33.247Z,3.75
2022-11-05T02:27:19.021Z,2.67
2022-11-05T02:30:03.940Z,3.22
2022-11-05T02:33:01.947Z,3.00
2022-11-05T02:35:29.110Z,4.60
2022-11-05T02:38:46.980Z,4.20
2022-11-05T02:41:33.500Z,2.38
2022-11-05T02:44:12.726Z,3.70
2022-11-05T02:46:46.974Z,4.93
2022-11-05T02:49:30.723Z,4.22
2022-11-05T02:52:01.460Z,4.82
2022-11-05T02:54:58.530Z,3.28
2022-11-05T02:57:29.708Z,4.50
2022-11-05T03:00:07.752Z,4.35
2022-11-05T03:02:35.499Z,2.95
2022-11-05T03:05:03.680Z,3.38
2022-11-05T03:07:47.968Z,3.80
2022-11-05T03:10:36.860Z,3.95
2022-11-05T03:13:17.575Z,3.00
2022-11-05T03:15:57.261Z,3.08
2022-11-05T03:18:42.497Z,4.90
2022-11-05T03:21:22.013Z,3.50
2022-11-05T03:23:58.781Z,3.78
2022-11-05T03:26:30.717Z,3.63
2022-11-05T03:29:06.729Z,3.08
2022-11-05T03:31:37.073Z,3.15
2022-11-05T03:34:07.999Z,5.60
2022-11-05T03:36:45.163Z,2.78
2022-11-05T03:39:19.153Z,3.22
2022-11-05T03:41:51.913Z,4.15
2022-11-05T03:44:25.641Z,4.32
2022-11-05T03:46:56.835Z,3.60
2022-11-05T03:49:32.956Z,3.28
2022-11-05T03:52:14.625Z,2.85
2022-11-05T03:54:42.041Z,2.90
2022-11-05T03:57:25.874Z,2.30
2022-11-05T03:59:53.216Z,5.45
2022-11-05T04:02:24.215Z,3.15
2022-11-05T04:04:52.727Z,2.83
2022-11-05T04:07:38.413Z,5.13
2022-11-05T04:10:24.756Z,2.83
2022-11-05T04:13:10.819Z,2.90
2022-11-05T04:15:56.950Z,3.15
2022-11-05T04:18:24.273Z,2.35
2022-11-05T04:21:10.170Z,4.70
2022-11-05T04:23:56.092Z,2.30
2022-11-05T04:26:23.662Z,2.75
2022-11-05T04:29:10.208Z,3.13
2022-11-05T04:31:38.621Z,2.65
2022-11-05T04:34:05.917Z,2.20
2022-11-05T04:36:33.247Z,2.10
2022-11-05T04:39:00.517Z,2.53
2022-11-05T04:41:27.869Z,2.38
2022-11-05T04:43:55.207Z,2.50
2022-11-05T04:46:22.485Z,3.08
2022-11-05T04:48:49.810Z,1.92
2022-11-05T04:51:17.090Z,3.70
2022-11-05T04:53:44.302Z,3.05
2022-11-05T04:56:31.886Z,2.33
2022-11-05T04:58:59.138Z,2.28
2022-11-05T05:01:26.552Z,3.45
2022-11-05T05:03:54.694Z,4.13
2022-11-05T05:06:22.793Z,3.25
2022-11-05T05:08:51.682Z,3.13
2022-11-05T05:11:21.445Z,2.42
2022-11-05T05:13:49.915Z,3.08
2022-11-05T05:16:23.463Z,3.40
2022-11-05T05:18:51.152Z,2.90
2022-11-05T05:21:38.839Z,2.63
2022-11-05T05:24:08.697Z,2.50
2022-11-05T05:26:38.673Z,3.05
2022-11-05T05:29:06.860Z,2.47
2022-11-05T05:31:34.548Z,4.18
2022-11-05T05:34:02.437Z,2.53
2022-11-05T05:36:30.342Z,2.83
2022-11-05T05:38:57.899Z,3.85
2022-11-05T05:41:25.243Z,3.10
2022-11-05T05:43:52.437Z,2.20
2022-11-05T05:46:19.892Z,2.83
2022-11-05T05:48:52.091Z,2.97
2022-11-05T05:51:20.100Z,2.67
2022-11-05T05:53:47.446Z,2.17
2022-11-05T05:56:15.468Z,2.20
2022-11-05T05:58:42.776Z,1.95
2022-11-05T06:01:18.524Z,2.95
2022-11-05T06:03:47.419Z,2.28
2022-11-05T06:06:15.999Z,2.53
2022-11-05T06:08:43.292Z,3.47
2022-11-05T06:11:10.637Z,2.67
2022-11-05T06:13:38.330Z,3.30
2022-11-05T06:16:08.378Z,3.10
2022-11-05T06:18:36.355Z,3.63
2022-11-05T06:21:06.110Z,4.20
2022-11-05T06:23:34.671Z,2.38
2022-11-05T06:26:06.764Z,3.35
2022-11-05T06:28:34.511Z,2.50
2022-11-05T06:31:02.211Z,3.05
2022-11-05T06:33:29.812Z,2.25
2022-11-05T06:36:01.618Z,2.30
2022-11-05T06:38:31.724Z,1.90
2022-11-05T06:40:59.804Z,3.53
2022-11-05T06:43:28.064Z,1.80
2022-11-05T06:45:55.988Z,1.60
2022-11-05T06:48:25.289Z,1.60
2022-11-05T06:50:52.532Z,2.67
2022-11-05T06:53:20.308Z,2.53
2022-11-05T06:55:48.057Z,4.20
2022-11-05T06:58:16.308Z,2.30
2022-11-05T07:00:43.723Z,2.10
2022-11-05T07:03:12.350Z,3.65
2022-11-05T07:05:46.684Z,3.08
2022-11-05T07:08:14.271Z,2.78
2022-11-05T07:10:41.609Z,1.98
2022-11-05T07:13:09.245Z,2.83
2022-11-05T07:15:37.269Z,2.83
2022-11-05T07:18:07.396Z,2.00
2022-11-05T07:20:35.499Z,2.10
2022-11-05T07:23:10.074Z,2.38
2022-11-05T07:25:37.667Z,2.53
2022-11-05T07:28:05.682Z,2.53
2022-11-05T07:30:34.481Z,2.65
2022-11-05T07:33:02.639Z,1.80
2022-11-05T07:35:30.015Z,2.08
2022-11-05T07:37:57.299Z,2.83
2022-11-05T07:40:27.731Z,1.65
2022-11-05T07:42:57.532Z,2.00
2022-11-05T07:45:26.842Z,2.33
2022-11-05T07:47:57.057Z,2.50
2022-11-05T07:50:27.092Z,1.67
2022-11-05T07:53:03.535Z,2.25
2022-11-05T07:55:30.983Z,2.30
2022-11-05T07:57:58.572Z,2.15
2022-11-05T08:00:27.368Z,1.38
2022-11-05T08:03:07.248Z,1.98
2022-11-05T08:05:38.172Z,2.60
2022-11-05T08:08:07.791Z,2.42
2022-11-05T08:10:36.047Z,2.50
2022-11-05T08:13:04.289Z,4.15
2022-11-05T08:15:32.142Z,3.00
2022-11-05T08:18:00.256Z,5.95
2022-11-05T08:20:28.163Z,1.95
2022-11-05T08:22:56.334Z,6.07
2022-11-05T08:25:24.333Z,4.72
2022-11-05T08:27:56.630Z,3.67
2022-11-05T08:30:24.379Z,1.90
2022-11-05T08:32:51.945Z,2.10
2022-11-05T08:35:20.326Z,2.92
2022-11-05T08:37:47.475Z,3.17
2022-11-05T08:40:14.813Z,2.85
2022-11-05T08:42:42.111Z,2.20
2022-11-05T08:45:09.792Z,3.03
2022-11-05T08:47:36.971Z,6.50
2022-11-05T08:50:04.373Z,3.05
2022-11-05T08:52:32.373Z,2.88
2022-11-05T08:54:59.661Z,3.47
2022-11-05T08:57:27.409Z,2.25
2022-11-05T08:59:54.640Z,1.90
2022-11-05T09:02:21.941Z,2.47
2022-11-05T09:04:49.333Z,4.40
2022-11-05T09:07:16.647Z,4.60
2022-11-05T09:09:43.962Z,2.92
2022-11-05T09:12:12.938Z,4.93
2022-11-05T09:14:40.561Z,3.35
2022-11-05T09:17:22.020Z,3.97
2022-11-05T09:19:49.408Z,3.60
2022-11-05T09:22:16.728Z,3.80
2022-11-05T09:24:44.016Z,5.43
2022-11-05T09:27:15.893Z,3.20
2022-11-05T09:29:43.123Z,4.55
2022-11-05T09:32:10.383Z,5.43
2022-11-05T09:34:37.754Z,3.63
2022-11-05T09:37:05.024Z,3.47
2022-11-05T09:39:32.300Z,4.20
2022-11-05T09:42:05.427Z,3.20
2022-11-05T09:47:24.885Z,2.90
2022-11-05T09:49:54.771Z,3.67
2022-11-05T09:52:25.898Z,5.93
2022-11-05T09:54:54.339Z,3.90
2022-11-05T09:57:45.567Z,4.88
2022-11-05T10:00:16.942Z,5.95
2022-11-05T10:02:53.198Z,3.40
2022-11-05T10:05:22.385Z,4.03
2022-11-05T10:07:54.120Z,4.45
2022-11-05T10:10:44.471Z,6.00
2022-11-05T10:13:23.809Z,2.72
2022-11-05T10:16:28.475Z,2.95
2022-11-05T10:19:09.808Z,6.10
2022-11-05T10:22:04.884Z,3.15
2022-11-05T10:24:25.491Z,2.47
2022-11-05T10:26:54.559Z,2.90
2022-11-05T10:29:29.218Z,2.13
2022-11-05T10:31:58.572Z,8.48
2022-11-05T10:34:30.922Z,3.20
2022-11-05T10:36:58.175Z,3.20
2022-11-05T10:39:27.821Z,4.22
2022-11-05T10:42:32.034Z,8.57
2022-11-05T10:45:34.680Z,7.13
2022-11-05T10:48:22.200Z,6.18
2022-11-05T10:50:50.011Z,9.65
2022-11-05T10:53:22.309Z,7.15
2022-11-05T10:55:51.894Z,5.37
2022-11-05T10:58:27.530Z,4.30
2022-11-05T11:00:54.848Z,5.75
2022-11-05T11:03:51.319Z,5.80
2022-11-05T11:06:31.013Z,5.85
2022-11-05T11:09:06.486Z,3.50
2022-11-05T11:11:41.642Z,6.75
2022-11-05T11:14:11.786Z,6.25
2022-11-05T11:16:45.523Z,9.18
2022-11-05T11:19:33.936Z,5.38
2022-11-05T11:22:04.137Z,7.70
2022-11-05T11:24:38.217Z,8.90
2022-11-05T11:27:32.020Z,5.78
2022-11-05T11:30:02.193Z,3.65
2022-11-05T11:32:39.173Z,4.47
2022-11-05T11:35:18.581Z,3.83
2022-11-05T11:37:46.828Z,5.20
2022-11-05T11:40:19.455Z,6.63
2022-11-05T11:42:55.733Z,4.68
2022-11-05T11:45:49.661Z,7.55
2022-11-05T11:48:24.717Z,4.43
2022-11-05T11:51:04.531Z,6.15
2022-11-05T11:53:36.313Z,5.95
2022-11-05T11:56:12.310Z,5.60
2022-11-05T11:58:48.820Z,5.18
2022-11-05T12:01:25.763Z,6.80
2022-11-05T12:04:17.765Z,7.43
2022-11-05T12:07:16.452Z,5.85
2022-11-05T12:10:24.685Z,8.65
2022-11-05T12:13:14.139Z,6.85
2022-11-05T12:15:49.627Z,7.93
2022-11-05T12:18:26.061Z,8.57
2022-11-05T12:21:13.865Z,7.82
2022-11-05T12:23:53.423Z,9.80
2022-11-05T12:26:36.564Z,6.53
2022-11-05T12:29:18.774Z,8.98
2022-11-05T12:31:55.022Z,7.60
2022-11-05T12:34:40.390Z,6.93
2022-11-05T12:37:29.326Z,5.82
2022-11-05T12:39:56.557Z,6.60
2022-11-05T12:42:23.925Z,6.10
2022-11-05T12:44:54.152Z,7.13
2022-11-05T12:47:24.467Z,6.28
2022-11-05T12:49:59.963Z,5.82
2022-11-05T12:52:32.999Z,5.03
2022-11-05T12:55:27.177Z,8.23
2022-11-05T12:58:05.714Z,6.40
2022-11-05T13:00:38.161Z,4.97
2022-11-05T13:03:14.956Z,4.47
2022-11-05T13:05:52.448Z,7.32
2022-11-05T13:08:44.269Z,5.28
2022-11-05T13:11:14.565Z,6.53
2022-11-05T13:13:48.757Z,5.45
2022-11-05T13:16:20.001Z,5.68
2022-11-05T13:18:57.160Z,4.97
2022-11-05T13:21:29.056Z,4.47
2022-11-05T13:24:15.360Z,5.55
2022-11-05T13:26:45.736Z,4.97
2022-11-05T13:29:19.777Z,5.78
2022-11-05T13:31:54.760Z,4.88
2022-11-05T13:34:22.095Z,8.32
2022-11-05T13:37:11.185Z,5.15
2022-11-05T13:39:54.276Z,5.75
2022-11-05T13:42:30.348Z,3.50
2022-11-05T13:45:21.395Z,5.47
2022-11-05T13:48:09.802Z,4.25
2022-11-05T13:51:01.521Z,3.60
2022-11-05T13:53:49.697Z,3.97
2022-11-05T13:56:39.220Z,3.30
2022-11-05T13:59:28.025Z,4.82
2022-11-05T14:02:00.111Z,4.10
2022-11-05T14:04:36.559Z,4.33
2022-11-05T14:07:28.133Z,4.82
2022-11-05T14:10:02.565Z,4.82
2022-11-05T14:12:34.681Z,4.35
2022-11-05T14:15:10.526Z,8.45
2022-11-05T14:18:03.710Z,4.97
2022-11-05T14:20:30.865Z,3.95
2022-11-05T14:23:17.500Z,3.30
2022-11-05T14:25:44.660Z,6.15
2022-11-05T14:28:48.856Z,5.18
2022-11-05T14:31:18.625Z,6.20
2022-11-05T14:33:59.387Z,4.07
2022-11-05T14:36:32.009Z,4.05
2022-11-05T14:39:17.157Z,4.72
2022-11-05T14:42:03.053Z,2.92
2022-11-05T14:44:32.861Z,2.95
2022-11-05T14:47:04.543Z,4.30
2022-11-05T14:49:49.267Z,4.65
2022-11-05T14:52:18.813Z,3.50
2022-11-05T14:54:49.023Z,3.53
2022-11-05T14:57:44.856Z,3.72
2022-11-05T15:00:40.783Z,4.25
2022-11-05T15:03:31.762Z,3.53
2022-11-05T15:06:08.308Z,5.82
2022-11-05T15:08:54.995Z,3.85
2022-11-05T15:11:40.865Z,3.38
2022-11-05T15:14:19.691Z,4.82
2022-11-05T15:17:03.972Z,3.97
2022-11-05T15:19:35.070Z,3.65
2022-11-05T15:22:07.049Z,4.50
2022-11-05T15:24:34.956Z,5.68
2022-11-05T15:27:25.361Z,6.40
2022-11-05T15:29:52.656Z,3.38
2022-11-05T15:32:25.373Z,3.30
2022-11-05T15:34:54.901Z,3.05
2022-11-05T15:37:25.209Z,3.72
2022-11-05T15:39:54.835Z,4.70
2022-11-05T15:42:24.787Z,3.65
2022-11-05T15:44:54.755Z,3.97
2022-11-05T15:47:26.134Z,2.65
2022-11-05T15:49:56.182Z,3.13
2022-11-05T15:52:33.749Z,4.28
2022-11-05T15:55:20.057Z,3.28
2022-11-05T15:57:51.062Z,2.33
2022-11-05T16:00:25.352Z,1.85
2022-11-05T16:02:56.643Z,4.30
2022-11-05T16:05:27.083Z,2.65
2022-11-05T16:07:57.420Z,3.47
2022-11-05T16:10:30.525Z,3.40
2022-11-05T16:15:29.495Z,2.88
2022-11-05T16:18:00.568Z,2.97
2022-11-05T16:20:32.159Z,4.18
2022-11-05T16:23:02.465Z,2.70
2022-11-05T16:25:43.585Z,2.90
2022-11-05T16:28:19.876Z,2.63
2022-11-05T16:30:55.993Z,2.60
2022-11-05T16:33:25.027Z,3.03
2022-11-05T16:35:52.339Z,3.50
2022-11-05T16:38:20.500Z,2.85
2022-11-05T16:40:47.865Z,2.90
2022-11-05T16:43:22.540Z,5.03
2022-11-05T16:45:52.920Z,3.20
2022-11-05T16:48:20.743Z,3.55
2022-11-05T16:50:48.103Z,3.67
2022-11-05T16:53:16.015Z,2.45
2022-11-05T16:55:45.325Z,2.85
2022-11-05T16:58:25.844Z,2.65
2022-11-05T17:01:00.899Z,2.78
2022-11-05T17:03:28.207Z,3.38
2022-11-05T17:05:55.406Z,3.67
2022-11-05T17:08:22.707Z,3.70
2022-11-05T17:10:49.965Z,3.58
2022-11-05T17:13:19.668Z,4.28
2022-11-05T17:15:48.903Z,4.20
2022-11-05T17:18:18.865Z,2.85
2022-11-05T17:20:49.811Z,3.70
2022-11-05T17:23:20.189Z,2.85
2022-11-05T17:25:50.703Z,3.90
2022-11-05T17:28:19.184Z,3.83
2022-11-05T17:30:52.215Z,4.07
2022-11-05T17:33:22.625Z,3.50
2022-11-05T17:35:51.302Z,4.80
2022-11-05T17:38:19.512Z,3.92
2022-11-05T17:40:46.842Z,3.38
2022-11-05T17:43:15.741Z,2.80
2022-11-05T17:45:46.108Z,3.20
2022-11-05T17:48:13.884Z,5.10
2022-11-05T17:50:47.044Z,2.75
2022-11-05T17:53:16.344Z,4.57
2022-11-05T17:55:45.269Z,3.17
2022-11-05T17:58:13.371Z,3.45
2022-11-05T18:00:42.449Z,3.10
2022-11-05T18:03:11.105Z,3.45
2022-11-05T18:05:40.034Z,4.82
2022-11-05T18:08:08.158Z,3.60
2022-11-05T18:10:39.722Z,3.85
2022-11-05T18:13:07.794Z,3.22
2022-11-05T18:15:38.007Z,3.28
2022-11-05T18:18:05.385Z,3.55
2022-11-05T18:20:33.100Z,3.60
2022-11-05T18:23:00.516Z,4.15
2022-11-05T18:25:28.048Z,3.97
2022-11-05T18:27:55.810Z,3.03
2022-11-05T18:30:23.245Z,3.55
2022-11-05T18:32:51.129Z,4.60
2022-11-05T18:35:18.515Z,4.00
2022-11-05T18:37:45.996Z,4.10
2022-11-05T18:40:13.256Z,3.70
2022-11-05T18:42:41.682Z,5.55
2022-11-05T18:45:10.507Z,3.30
2022-11-05T18:47:38.363Z,3.22
2022-11-05T18:50:07.204Z,4.18
2022-11-05T18:52:34.582Z,4.88
2022-11-05T18:55:01.897Z,3.42
2022-11-05T18:57:29.343Z,4.05
2022-11-05T18:59:56.624Z,4.00
2022-11-05T19:02:24.021Z,5.45
2022-11-05T19:05:22.015Z,4.40
2022-11-05T19:07:39.324Z,4.85
2022-11-05T19:10:07.659Z,4.07
2022-11-05T19:12:34.921Z,4.43
2022-11-05T19:15:03.004Z,5.10
2022-11-05T19:17:32.966Z,4.32
2022-11-05T19:20:01.070Z,4.03
2022-11-05T19:22:28.344Z,4.70
2022-11-05T19:24:55.617Z,5.40
2022-11-05T19:27:23.376Z,5.50
2022-11-05T19:29:50.682Z,8.30
2022-11-05T19:32:18.207Z,6.20
2022-11-05T19:34:46.865Z,6.18
2022-11-05T19:37:14.337Z,5.38
2022-11-05T19:39:41.825Z,6.88
2022-11-05T19:42:09.276Z,6.50
2022-11-05T19:44:36.548Z,5.55
2022-11-05T19:47:03.968Z,6.82
2022-11-05T19:49:34.205Z,6.15
2022-11-05T19:52:01.745Z,5.25
2022-11-05T19:54:30.589Z,5.25
2022-11-05T19:56:58.769Z,5.68
2022-11-05T19:59:26.292Z,5.40
2022-11-05T20:01:53.890Z,3.85
2022-11-05T20:04:21.612Z,6.72
2022-11-05T20:06:49.635Z,7.25
2022-11-05T20:09:23.479Z,7.00
2022-11-05T20:11:54.615Z,6.32
2022-11-05T20:14:23.767Z,7.10
2022-11-05T20:16:51.559Z,4.95
2022-11-05T20:19:21.133Z,4.57
2022-11-05T20:21:49.134Z,4.70
2022-11-05T20:24:23.670Z,5.00
2022-11-05T20:26:53.389Z,7.15
2022-11-05T20:29:21.057Z,5.13
2022-11-05T20:31:48.674Z,5.57
2022-11-05T20:34:16.155Z,5.65
2022-11-05T20:36:43.381Z,6.18
2022-11-05T20:39:12.094Z,7.75
2022-11-05T20:41:39.515Z,7.82
2022-11-05T20:44:06.789Z,6.30
2022-11-05T20:46:34.350Z,6.13
2022-11-05T20:49:01.611Z,5.85
2022-11-05T20:51:29.759Z,4.93
2022-11-05T20:53:59.460Z,7.53
2022-11-05T20:56:29.661Z,5.78
2022-11-05T20:58:58.833Z,7.85
2022-11-05T21:01:29.353Z,7.90
2022-11-05T21:03:57.175Z,6.32
2022-11-05T21:06:24.555Z,5.53
2022-11-05T21:08:52.633Z,6.15
2022-11-05T21:11:20.747Z,8.02
2022-11-05T21:13:48.525Z,9.07
2022-11-05T21:16:18.853Z,6.07
2022-11-05T21:18:47.377Z,4.57
2022-11-05T21:21:19.310Z,6.82
2022-11-05T21:23:47.062Z,5.00
2022-11-05T21:26:15.356Z,4.60
2022-11-05T21:28:49.312Z,5.25
2022-11-05T21:31:16.584Z,6.15
2022-11-05T21:33:43.882Z,4.95
2022-11-05T21:36:12.918Z,6.72
2022-11-05T21:38:41.514Z,5.32
2022-11-05T21:41:11.378Z,4.85
2022-11-05T21:43:40.805Z,5.80
2022-11-05T21:46:08.127Z,8.68
2022-11-05T21:48:38.927Z,6.25
2022-11-05T21:51:25.067Z,6.25
2022-11-05T21:54:10.918Z,6.40
2022-11-05T21:56:56.583Z,7.22
2022-11-05T21:59:43.836Z,4.85
2022-11-05T22:02:13.132Z,6.22
2022-11-05T22:04:43.229Z,7.20
2022-11-05T22:07:15.574Z,5.93
2022-11-05T22:09:43.572Z,6.93
2022-11-05T22:12:11.494Z,6.28
2022-11-05T22:14:39.259Z,5.32
2022-11-05T22:17:07.656Z,5.20
2022-11-05T22:19:35.501Z,5.93
2022-11-05T22:22:04.959Z,6.68
2022-11-05T22:24:33.473Z,4.78
2022-11-05T22:27:02.957Z,6.55
2022-11-05T22:29:30.497Z,4.47
2022-11-05T22:31:57.815Z,5.50
2022-11-05T22:34:25.938Z,7.13
2022-11-05T22:36:53.499Z,6.88
2022-11-05T22:39:21.023Z,6.57
2022-11-05T22:41:48.915Z,5.88
2022-11-05T22:44:16.755Z,5.75
2022-11-05T22:46:44.131Z,5.30
2022-11-05T22:49:11.575Z,6.57
2022-11-05T22:51:39.607Z,4.85
2022-11-05T22:54:07.519Z,7.03
2022-11-05T22:56:38.433Z,6.90
2022-11-05T22:59:06.871Z,6.57
2022-11-05T23:01:34.676Z,6.40
2022-11-05T23:04:02.080Z,8.13
2022-11-05T23:06:51.814Z,6.70
2022-11-05T23:09:55.820Z,7.07
2022-11-05T23:12:32.045Z,6.97
2022-11-05T23:15:01.242Z,5.95
2022-11-05T23:17:48.177Z,5.38
2022-11-05T23:20:37.625Z,6.88
2022-11-05T23:23:27.912Z,5.82
2022-11-05T23:26:00.035Z,5.95
2022-11-05T23:28:27.451Z,6.00
2022-11-05T23:31:13.115Z,6.03
2022-11-05T23:33:40.308Z,7.22
2022-11-05T23:36:30.893Z,6.53
2022-11-05T23:38:58.101Z,5.97
2022-11-05T23:41:43.669Z,6.38
2022-11-05T23:44:29.327Z,4.85
2022-11-05T23:47:15.156Z,5.50
2022-11-05T23:49:42.440Z,5.57
2022-11-05T23:52:09.699Z,7.30
2022-11-05T23:54:37.031Z,5.03
2022-11-05T23:57:04.776Z,6.68
2022-11-05T23:59:32.041Z,5.72
